Weather History for Salida, CO

Change the Weather History Date:

Saturday, December 8, 2012

  Actual Average (KGUC) Record (KGUC)
Temperature  
Mean Temperature 37 °F -  
Max Temperature 46 °F 26 °F 42 °F (2012)
Min Temperature 28 °F 2 °F -34 °F (2005)
Degree Days  
Heating Degree Days 28    
Moisture  
Dew Point 19 °F    
Average Humidity 50    
Maximum Humidity 78    
Minimum Humidity 27    
Precipitation  
Precipitation 0.00 in - - ()
Sea Level Pressure  
Sea Level Pressure 29.87 in    
Wind  
Wind Speed 12 mph (SW)    
Max Wind Speed 30 mph    
Max Gust Speed 39 mph    
Visibility 10 miles    
Events      
Averages and records for this station are not official NWS values.
T = Trace of Precipitation, MM = Missing Value Source: NWS Daily Summary

Daily Weather History Graph

Daily Weather History Graph

Search for Another Location

Airport:

Trip Planner

Search our weather history database for the weather conditions in past years. The results will help you decide how hot, cold, wet, or windy it might be!

Date:

Astronomy

Dec. 08, 2012 Rise Set
Actual Time 7:09 AM MST 4:43 PM MST
Civil Twilight 6:40 AM MST 5:12 PM MST
Nautical Twilight 6:06 AM MST 5:45 PM MST
Astronomical Twilight 5:34 AM MST 6:17 PM MST
Moon 1:40 AM MST (12/8) 1:11 PM MST (12/8)
Length of Visible Light 10h 32m
Length of Day
9h 33m
Waning Crescent, 27% of the Moon is Illuminated
Dec 8
Waning Crescent
Dec 13
New
Dec 19
First Quarter
Dec 28
Full
Jan 4
Last Quarter

Hourly Weather History & Observations

Time (MST) Temp. Windchill Dew Point Humidity Pressure Visibility Wind Dir Wind Speed Gust Speed Precip Events Conditions
12:15 AM 30.2 °F 18.9 °F 19.2 °F 64% 29.96 in 10.0 mi SE 16.1 mph 23.0 mph N/A   Mostly Cloudy
12:35 AM 30.2 °F 21.9 °F 19.2 °F 64% 29.97 in 10.0 mi SE 9.2 mph 16.1 mph N/A   Overcast
12:55 AM 30.7 °F 22.6 °F 19.2 °F 62% 29.95 in 10.0 mi SE 9.2 mph - N/A   Overcast
1:15 AM 29.8 °F 21.5 °F 19.4 °F 65% 29.95 in 10.0 mi SE 9.2 mph - N/A   Overcast
1:55 AM 29.1 °F 21.3 °F 19.2 °F 67% 29.94 in 10.0 mi SE 8.1 mph - N/A   Overcast
2:15 AM 28.4 °F 21.2 °F 19.4 °F 69% 29.94 in 10.0 mi ESE 6.9 mph - N/A   Overcast
2:35 AM 28.2 °F 20.2 °F 19.2 °F 69% 29.94 in 10.0 mi ESE 8.1 mph - N/A   Overcast
2:55 AM 28.8 °F 21.7 °F 19.0 °F 67% 29.93 in 10.0 mi ESE 6.9 mph - N/A   Mostly Cloudy
3:15 AM 29.5 °F - 18.7 °F 64% 29.92 in 10.0 mi Calm Calm - N/A   Scattered Clouds
3:35 AM 30.6 °F 24.7 °F 18.5 °F 61% 29.92 in 10.0 mi South 5.8 mph - N/A   Mostly Cloudy
3:55 AM 30.9 °F 27.5 °F 18.5 °F 60% 29.92 in 10.0 mi SE 3.5 mph - N/A   Overcast
4:15 AM 34.2 °F 31.2 °F 17.8 °F 51% 29.92 in 10.0 mi South 3.5 mph - N/A   Overcast
4:35 AM 34.9 °F 29.9 °F 17.4 °F 49% 29.91 in 10.0 mi South 5.8 mph - N/A   Mostly Cloudy
4:55 AM 35.8 °F 30.1 °F 17.4 °F 47% 29.91 in 10.0 mi SW 6.9 mph - N/A   Scattered Clouds
5:15 AM 34.9 °F 27.1 °F 17.4 °F 49% 29.90 in 10.0 mi SSW 10.4 mph 17.3 mph N/A   Clear
5:35 AM 35.1 °F 30.1 °F 17.4 °F 49% 29.88 in 10.0 mi SSW 5.8 mph - N/A   Clear
5:55 AM 34.5 °F 27.9 °F 18.1 °F 51% 29.89 in 10.0 mi SW 8.1 mph - N/A   Clear
6:15 AM 34.3 °F 26.5 °F 18.1 °F 52% 29.90 in 10.0 mi SSW 10.4 mph 17.3 mph N/A   Clear
6:35 AM 34.2 °F 29.0 °F 17.8 °F 51% 29.89 in 10.0 mi South 5.8 mph 18.4 mph N/A   Clear
6:55 AM 34.7 °F 26.9 °F 17.8 °F 50% 29.90 in 10.0 mi SSW 10.4 mph - N/A   Scattered Clouds
7:15 AM 34.5 °F 27.9 °F 18.0 °F 51% 29.90 in 10.0 mi SSW 8.1 mph - N/A   Clear
7:35 AM 35.6 °F 26.6 °F 18.3 °F 50% 29.90 in 10.0 mi SSW 13.8 mph 23.0 mph N/A   Clear
7:55 AM 34.7 °F 25.9 °F 18.3 °F 51% 29.88 in 10.0 mi SSW 12.7 mph 16.1 mph N/A   Clear
8:15 AM 36.5 °F 28.7 °F 18.5 °F 48% 29.89 in 10.0 mi SSW 11.5 mph 18.4 mph N/A   Clear
8:35 AM 37.8 °F 29.8 °F 19.6 °F 48% 29.89 in 10.0 mi SW 12.7 mph 28.8 mph N/A   Clear
8:55 AM 39.0 °F 31.8 °F 18.9 °F 44% 29.90 in 10.0 mi SW 11.5 mph 20.7 mph N/A   Clear
9:15 AM 40.5 °F 35.1 °F 19.0 °F 42% 29.89 in 10.0 mi WSW 8.1 mph 16.1 mph N/A   Clear
9:35 AM 40.3 °F 31.6 °F 18.5 °F 42% 29.90 in 10.0 mi WSW 17.3 mph 25.3 mph N/A   Clear
9:55 AM 42.3 °F 33.1 °F 18.5 °F 39% 29.89 in 10.0 mi WSW 21.9 mph 29.9 mph N/A   Clear
10:15 AM 42.8 °F 35.1 °F 17.1 °F 36% 29.88 in 10.0 mi WSW 16.1 mph 32.2 mph N/A   Clear
10:35 AM 43.2 °F 34.2 °F 15.4 °F 33% 29.87 in 10.0 mi West 21.9 mph 32.2 mph N/A   Clear
10:55 AM 44.2 °F 35.0 °F 14.9 °F 31% 29.86 in 10.0 mi West 25.3 mph 34.5 mph N/A   Clear
11:15 AM 45.3 °F 36.9 °F 14.5 °F 29% 29.85 in 10.0 mi WSW 23.0 mph 32.2 mph N/A   Clear
11:35 AM 46.2 °F 38.1 °F 14.9 °F 28% 29.83 in 10.0 mi WSW 23.0 mph 34.5 mph N/A   Clear
11:55 AM 45.7 °F 37.6 °F 14.9 °F 29% 29.82 in 10.0 mi WSW 21.9 mph 34.5 mph N/A   Clear
12:15 PM 46.8 °F - 14.9 °F 28% 29.82 in 10.0 mi WSW 18.4 mph 31.1 mph N/A   Clear
12:35 PM 46.8 °F - 14.5 °F 27% 29.80 in 10.0 mi West 16.1 mph 26.5 mph N/A   Clear
12:55 PM 46.9 °F - 14.5 °F 27% 29.81 in 10.0 mi West 18.4 mph 39.1 mph N/A   Scattered Clouds
1:15 PM 45.5 °F 36.0 °F 15.8 °F 30% 29.82 in 10.0 mi West 29.9 mph 39.1 mph N/A   Scattered Clouds
1:35 PM 43.0 °F 34.8 °F 19.8 °F 40% 29.80 in 10.0 mi West 18.4 mph 35.7 mph N/A   Scattered Clouds
1:55 PM 42.8 °F 34.0 °F 20.1 °F 40% 29.80 in 10.0 mi West 20.7 mph 29.9 mph N/A   Scattered Clouds
2:15 PM 42.8 °F 33.3 °F 20.7 °F 41% 29.80 in 10.0 mi West 24.2 mph 36.8 mph N/A   Scattered Clouds
2:35 PM 42.8 °F 34.5 °F 18.7 °F 38% 29.79 in 10.0 mi West 18.4 mph 34.5 mph N/A   Scattered Clouds
3:15 PM 42.8 °F 34.8 °F 14.7 °F 32% 29.80 in 10.0 mi West 17.3 mph 29.9 mph N/A   Scattered Clouds
3:35 PM 42.3 °F 33.8 °F 12.7 °F 30% 29.79 in 10.0 mi WNW 18.4 mph 25.3 mph N/A   Scattered Clouds
3:55 PM 42.4 °F 36.1 °F 12.2 °F 29% 29.79 in 10.0 mi West 11.5 mph 31.1 mph N/A   Clear
4:15 PM 41.9 °F 33.7 °F 12.7 °F 31% 29.80 in 10.0 mi West 17.3 mph 24.2 mph N/A   Clear
4:35 PM 41.2 °F 32.1 °F 13.3 °F 32% 29.80 in 10.0 mi West 19.6 mph 26.5 mph N/A   Scattered Clouds
4:55 PM 40.6 °F 30.2 °F 14.5 °F 35% 29.81 in 10.0 mi West 25.3 mph 31.1 mph N/A   Mostly Cloudy
5:15 PM 40.1 °F 32.0 °F 16.2 °F 38% 29.80 in 10.0 mi WSW 15.0 mph 18.4 mph N/A   Overcast
5:35 PM 40.3 °F 32.6 °F 15.6 °F 37% 29.81 in 10.0 mi West 13.8 mph 20.7 mph N/A   Overcast
5:55 PM 40.1 °F 31.3 °F 16.5 °F 39% 29.82 in 10.0 mi West 17.3 mph 26.5 mph N/A   Overcast
6:15 PM 39.2 °F 29.0 °F 19.4 °F 45% 29.83 in 10.0 mi West 21.9 mph 33.4 mph N/A   Overcast
6:35 PM 37.8 °F 29.8 °F 21.7 °F 53% 29.84 in 10.0 mi West 12.7 mph 26.5 mph N/A   Overcast
6:55 PM 36.7 °F 28.0 °F 23.2 °F 58% 29.85 in 10.0 mi West 13.8 mph 21.9 mph N/A   Overcast
7:15 PM 36.0 °F 26.3 °F 23.5 °F 61% 29.86 in 10.0 mi West 16.1 mph 24.2 mph N/A   Overcast
7:55 PM 34.5 °F 27.3 °F 24.8 °F 68% 29.86 in 10.0 mi West 9.2 mph 18.4 mph N/A   Overcast
8:15 PM 34.0 °F 27.2 °F 24.6 °F 69% 29.85 in 10.0 mi West 8.1 mph - N/A   Overcast
8:35 PM 33.4 °F 25.4 °F 25.7 °F 73% 29.85 in 10.0 mi West 10.4 mph - N/A   Overcast
8:55 PM 33.4 °F 24.8 °F 26.1 °F 74% 29.86 in 10.0 mi West 11.5 mph - N/A   Overcast
9:15 PM 32.5 °F 26.2 °F 26.4 °F 78% 29.85 in 10.0 mi West 6.9 mph - N/A   Overcast
9:35 PM 32.7 °F 27.3 °F 26.4 °F 78% 29.86 in 10.0 mi WSW 5.8 mph - N/A   Overcast
9:55 PM 33.1 °F - 25.7 °F 74% 29.86 in 10.0 mi Calm Calm - N/A   Overcast
10:15 PM 34.3 °F 29.2 °F 24.1 °F 66% 29.86 in 10.0 mi WNW 5.8 mph - N/A   Overcast
10:35 PM 35.4 °F 27.3 °F 23.0 °F 61% 29.86 in 10.0 mi WSW 11.5 mph 18.4 mph N/A   Overcast
10:55 PM 34.7 °F 28.8 °F 23.0 °F 62% 29.86 in 10.0 mi SSW 6.9 mph 16.1 mph N/A   Overcast
11:15 PM 35.1 °F 26.9 °F 22.1 °F 59% 29.85 in 10.0 mi WSW 11.5 mph 23.0 mph N/A   Overcast
11:35 PM 34.7 °F 27.5 °F 21.6 °F 59% 29.84 in 10.0 mi WSW 9.2 mph - N/A   Overcast
11:55 PM 35.1 °F 27.4 °F 20.3 °F 55% 29.83 in 10.0 mi WSW 10.4 mph - N/A   Overcast